createdAt,value
2022-07-27T00:00:46.925Z,0.50
2022-07-27T00:02:18.628Z,0.52
2022-07-27T00:03:50.396Z,0.50
2022-07-27T00:05:22.138Z,0.50
2022-07-27T00:06:53.862Z,0.50
2022-07-27T00:08:25.511Z,0.40
2022-07-27T00:09:57.146Z,0.43
2022-07-27T00:11:28.802Z,0.40
2022-07-27T00:13:00.428Z,0.52
2022-07-27T00:14:32.095Z,0.47
2022-07-27T00:16:04.677Z,0.52
2022-07-27T00:17:36.486Z,0.60
2022-07-27T00:19:09.387Z,0.52
2022-07-27T00:20:41.717Z,0.40
2022-07-27T00:22:13.318Z,0.40
2022-07-27T00:23:44.947Z,0.50
2022-07-27T00:25:16.596Z,0.40
2022-07-27T00:26:48.206Z,0.32
2022-07-27T00:28:19.923Z,0.40
2022-07-27T00:29:51.542Z,0.70
2022-07-27T00:31:23.175Z,0.40
2022-07-27T00:32:55.130Z,0.50
2022-07-27T00:34:27.283Z,0.93
2022-07-27T00:35:59.045Z,0.50
2022-07-27T00:37:30.659Z,0.50
2022-07-27T00:39:02.303Z,0.40
2022-07-27T00:40:34.951Z,0.70
2022-07-27T00:42:06.941Z,0.38
2022-07-27T00:43:58.440Z,0.50
2022-07-27T00:51:37.347Z,0.40
2022-07-27T00:53:09.958Z,0.45
2022-07-27T00:54:42.978Z,0.40
2022-07-27T00:56:15.011Z,0.50
2022-07-27T00:57:58.525Z,0.60
2022-07-27T00:59:31.775Z,0.50
2022-07-27T01:01:03.561Z,0.43
2022-07-27T01:02:35.432Z,0.60
2022-07-27T01:04:08.860Z,0.50
2022-07-27T01:05:43.343Z,0.60
2022-07-27T01:07:15.837Z,0.50
2022-07-27T01:08:47.448Z,0.57
2022-07-27T01:10:19.115Z,0.43
2022-07-27T01:11:50.774Z,0.43
2022-07-27T01:13:23.906Z,0.50
2022-07-27T01:14:57.918Z,0.47
2022-07-27T01:16:29.630Z,0.52
2022-07-27T01:18:01.317Z,0.65
2022-07-27T01:19:34.550Z,0.45
2022-07-27T01:21:08.871Z,0.50
2022-07-27T01:22:40.637Z,0.65
2022-07-27T01:24:12.285Z,0.43
2022-07-27T01:25:43.887Z,0.47
2022-07-27T01:27:15.604Z,0.47
2022-07-27T01:28:47.536Z,0.60
2022-07-27T01:30:30.065Z,0.60
2022-07-27T01:32:02.383Z,0.47
2022-07-27T01:33:34.012Z,0.50
2022-07-27T01:35:06.195Z,0.65
2022-07-27T01:36:37.798Z,0.60
2022-07-27T01:38:11.436Z,0.60
2022-07-27T01:39:43.058Z,0.63
2022-07-27T01:41:14.680Z,0.45
2022-07-27T01:42:46.315Z,0.50
2022-07-27T01:44:17.979Z,0.50
2022-07-27T01:45:49.715Z,0.60
2022-07-27T01:47:21.346Z,0.47
2022-07-27T01:48:53.217Z,0.60
2022-07-27T01:50:24.886Z,0.60
2022-07-27T01:51:56.524Z,0.47
2022-07-27T01:53:28.626Z,0.50
2022-07-27T01:55:00.250Z,0.55
2022-07-27T01:56:31.893Z,0.80
2022-07-27T01:58:07.117Z,0.60
2022-07-27T01:59:38.709Z,0.60
2022-07-27T02:01:10.396Z,0.60
2022-07-27T02:02:42.137Z,0.50
2022-07-27T02:04:13.756Z,0.60
2022-07-27T02:05:45.576Z,0.60
2022-07-27T02:07:17.363Z,0.55
2022-07-27T02:08:50.234Z,0.50
2022-07-27T02:10:22.002Z,0.43
2022-07-27T02:12:12.258Z,0.50
2022-07-27T02:13:44.914Z,0.55
2022-07-27T02:15:19.866Z,0.60
2022-07-27T02:16:52.637Z,0.65
2022-07-27T02:18:33.668Z,0.55
2022-07-27T02:20:10.089Z,0.60
2022-07-27T02:21:41.701Z,0.80
2022-07-27T02:23:14.072Z,0.60
2022-07-27T02:24:46.255Z,0.70
2022-07-27T02:26:17.989Z,0.80
2022-07-27T02:27:49.837Z,0.80
2022-07-27T02:29:21.557Z,0.70
2022-07-27T02:30:53.162Z,0.88
2022-07-27T02:32:24.995Z,0.60
2022-07-27T02:33:56.650Z,0.70
2022-07-27T02:35:28.251Z,0.60
2022-07-27T02:36:59.948Z,0.88
2022-07-27T02:38:31.567Z,0.50
2022-07-27T02:40:03.468Z,0.50
2022-07-27T02:41:35.063Z,0.63
2022-07-27T02:43:06.698Z,0.50
2022-07-27T02:44:38.290Z,0.55
2022-07-27T02:46:12.314Z,0.50
2022-07-27T02:47:44.524Z,0.50
2022-07-27T02:49:16.544Z,0.57
2022-07-27T02:50:50.671Z,0.70
2022-07-27T02:52:22.349Z,0.50
2022-07-27T02:53:53.948Z,0.60
2022-07-27T02:55:25.562Z,0.40
2022-07-27T02:56:57.302Z,0.60
2022-07-27T02:58:28.892Z,0.60
2022-07-27T03:00:00.678Z,0.50
2022-07-27T03:01:32.355Z,0.40
2022-07-27T03:03:04.147Z,0.55
2022-07-27T03:04:35.785Z,0.70
2022-07-27T03:06:08.395Z,0.50
2022-07-27T03:07:40.071Z,0.55
2022-07-27T03:09:12.041Z,0.63
2022-07-27T03:10:48.781Z,0.50
2022-07-27T03:12:20.631Z,0.40
2022-07-27T03:13:52.271Z,0.50
2022-07-27T03:15:24.571Z,0.57
2022-07-27T03:16:57.871Z,0.47
2022-07-27T03:18:29.452Z,0.80
2022-07-27T03:20:01.093Z,0.40
2022-07-27T03:21:32.786Z,0.50
2022-07-27T03:23:04.397Z,0.57
2022-07-27T03:24:36.388Z,0.60
2022-07-27T03:26:08.000Z,0.30
2022-07-27T03:27:39.660Z,0.40
2022-07-27T03:29:11.671Z,0.50
2022-07-27T03:30:43.946Z,0.57
2022-07-27T03:32:15.752Z,0.40
2022-07-27T03:33:47.340Z,0.60
2022-07-27T03:35:19.849Z,0.52
2022-07-27T03:36:52.212Z,0.40
2022-07-27T03:38:23.796Z,0.60
2022-07-27T03:39:55.568Z,0.30
2022-07-27T03:41:27.396Z,0.57
2022-07-27T03:42:59.823Z,0.38
2022-07-27T03:44:31.437Z,0.65
2022-07-27T03:46:03.374Z,0.40
2022-07-27T03:47:35.020Z,0.60
2022-07-27T03:49:14.059Z,0.45
2022-07-27T03:50:46.661Z,0.70
2022-07-27T03:52:19.697Z,0.40
2022-07-27T03:53:51.332Z,0.60
2022-07-27T03:55:22.980Z,0.45
2022-07-27T03:56:54.709Z,0.32
2022-07-27T03:58:26.329Z,0.50
2022-07-27T03:59:57.939Z,0.43
2022-07-27T04:01:29.648Z,0.35
2022-07-27T04:03:01.387Z,0.40
2022-07-27T04:04:33.075Z,0.35
2022-07-27T04:06:04.782Z,0.75
2022-07-27T04:07:36.445Z,0.30
2022-07-27T04:09:09.147Z,0.82
2022-07-27T04:10:41.637Z,0.40
2022-07-27T04:12:16.645Z,0.30
2022-07-27T04:13:50.074Z,0.57
2022-07-27T04:15:22.344Z,0.50
2022-07-27T04:16:54.034Z,0.45
2022-07-27T04:18:25.892Z,0.57
2022-07-27T04:19:57.641Z,0.47
2022-07-27T04:21:33.637Z,0.40
2022-07-27T04:23:05.536Z,0.50
2022-07-27T04:24:37.192Z,0.60
2022-07-27T04:26:08.896Z,0.40
2022-07-27T04:27:40.683Z,0.30
2022-07-27T04:29:16.932Z,0.60
2022-07-27T04:30:52.119Z,0.43
2022-07-27T04:32:23.837Z,0.47
2022-07-27T04:33:55.447Z,0.50
2022-07-27T04:35:27.113Z,0.52
2022-07-27T04:36:58.727Z,0.50
2022-07-27T04:38:30.371Z,0.47
2022-07-27T04:40:02.311Z,0.50
2022-07-27T04:41:34.038Z,0.47
2022-07-27T04:43:06.588Z,0.30
2022-07-27T04:44:39.342Z,0.40
2022-07-27T04:46:15.343Z,0.50
2022-07-27T04:47:47.233Z,0.60
2022-07-27T04:49:18.919Z,0.55
2022-07-27T04:50:50.583Z,0.45
2022-07-27T04:52:26.852Z,0.50
2022-07-27T04:53:59.021Z,0.50
2022-07-27T04:55:30.698Z,0.50
2022-07-27T04:57:02.352Z,0.60
2022-07-27T04:58:33.982Z,0.40
2022-07-27T05:00:06.332Z,0.55
2022-07-27T05:01:37.985Z,0.52
2022-07-27T05:03:10.182Z,0.32
2022-07-27T05:04:41.810Z,0.30
2022-07-27T05:06:13.421Z,0.40
2022-07-27T05:07:45.113Z,0.40
2022-07-27T05:09:16.770Z,0.38
2022-07-27T05:10:54.732Z,0.30
2022-07-27T05:12:26.360Z,0.40
2022-07-27T05:13:58.057Z,0.70
2022-07-27T05:15:29.896Z,0.55
2022-07-27T05:17:21.474Z,0.32
2022-07-27T05:18:53.094Z,0.38
2022-07-27T05:20:25.173Z,0.38
2022-07-27T05:21:56.812Z,0.32
2022-07-27T05:23:28.567Z,0.30
2022-07-27T05:25:00.297Z,0.30
2022-07-27T05:26:31.924Z,0.50
2022-07-27T05:28:03.669Z,0.50
2022-07-27T05:29:35.340Z,0.40
2022-07-27T05:31:07.006Z,0.43
2022-07-27T05:32:38.676Z,0.50
2022-07-27T05:34:10.370Z,0.55
2022-07-27T05:35:42.391Z,0.50
2022-07-27T05:37:14.170Z,0.73
2022-07-27T05:38:45.814Z,0.30
2022-07-27T05:40:17.505Z,0.38
2022-07-27T05:41:49.161Z,0.55
2022-07-27T05:43:21.397Z,0.35
2022-07-27T05:44:54.341Z,0.32
2022-07-27T05:46:28.481Z,0.40
2022-07-27T05:48:04.459Z,0.50
2022-07-27T05:49:36.427Z,0.40
2022-07-27T05:51:08.433Z,0.30
2022-07-27T05:52:40.127Z,0.45
2022-07-27T05:54:11.782Z,0.40
2022-07-27T05:55:59.075Z,0.57
2022-07-27T05:57:31.373Z,0.32
2022-07-27T05:59:06.976Z,0.45
2022-07-27T06:00:40.046Z,0.20
2022-07-27T06:02:11.725Z,0.25
2022-07-27T06:03:43.467Z,0.30
2022-07-27T06:05:17.702Z,0.30
2022-07-27T06:07:08.037Z,0.40
2022-07-27T06:08:39.845Z,0.40
2022-07-27T06:10:11.674Z,0.35
2022-07-27T06:11:43.622Z,0.30
2022-07-27T06:13:15.344Z,0.35
2022-07-27T06:14:50.954Z,0.40
2022-07-27T06:16:23.662Z,0.40
2022-07-27T06:17:55.591Z,0.60
2022-07-27T06:19:36.172Z,0.50
2022-07-27T06:24:19.324Z,0.40
2022-07-27T06:25:50.959Z,0.40
2022-07-27T06:27:24.956Z,0.45
2022-07-27T06:29:01.304Z,0.60
2022-07-27T06:30:33.435Z,0.50
2022-07-27T06:32:05.538Z,0.47
2022-07-27T06:33:37.287Z,0.63
2022-07-27T06:35:09.507Z,0.43
2022-07-27T06:36:42.864Z,0.50
2022-07-27T06:38:14.574Z,0.50
2022-07-27T06:39:46.693Z,0.45
2022-07-27T06:41:18.347Z,0.60
2022-07-27T06:42:49.993Z,0.60
2022-07-27T06:44:22.216Z,0.60
2022-07-27T06:45:54.630Z,0.40
2022-07-27T06:47:28.892Z,0.68
2022-07-27T06:49:00.709Z,0.60
2022-07-27T06:50:32.313Z,0.60
2022-07-27T06:52:04.188Z,0.50
2022-07-27T06:53:36.369Z,0.40
2022-07-27T06:55:09.463Z,0.60
2022-07-27T06:56:41.070Z,0.50
2022-07-27T06:58:13.035Z,0.60
2022-07-27T06:59:44.646Z,0.52
2022-07-27T07:01:16.364Z,0.50
2022-07-27T07:02:57.254Z,0.38
2022-07-27T07:04:29.041Z,0.50
2022-07-27T07:06:00.703Z,0.57
2022-07-27T07:07:32.316Z,0.52
2022-07-27T07:09:04.051Z,0.60
2022-07-27T07:10:35.637Z,0.32
2022-07-27T07:12:07.448Z,0.93
2022-07-27T07:13:43.244Z,0.57
2022-07-27T07:15:16.781Z,0.40
2022-07-27T07:16:49.069Z,0.68
2022-07-27T07:18:20.877Z,0.43
2022-07-27T07:19:52.688Z,0.40
2022-07-27T07:21:24.310Z,0.50
2022-07-27T07:22:59.213Z,0.50
2022-07-27T07:24:31.131Z,0.50
2022-07-27T07:26:02.772Z,0.82
2022-07-27T07:27:34.397Z,0.40
2022-07-27T07:29:06.674Z,0.47
2022-07-27T07:30:38.298Z,0.50
2022-07-27T07:32:09.917Z,0.30
2022-07-27T07:33:41.554Z,0.60
2022-07-27T07:35:13.283Z,0.60
2022-07-27T07:36:46.155Z,0.40
2022-07-27T07:38:17.812Z,0.40
2022-07-27T07:39:49.439Z,0.60
2022-07-27T07:41:24.884Z,0.30
2022-07-27T07:43:03.844Z,0.57
2022-07-27T07:44:35.486Z,0.30
2022-07-27T07:46:08.662Z,0.40
2022-07-27T07:47:40.352Z,0.43
2022-07-27T07:49:12.349Z,0.70
2022-07-27T07:50:44.255Z,0.30
2022-07-27T07:52:16.059Z,0.40
2022-07-27T07:53:47.689Z,0.52
2022-07-27T07:55:20.910Z,0.35
2022-07-27T07:56:53.451Z,0.35
2022-07-27T07:58:25.147Z,0.70
2022-07-27T07:59:56.796Z,0.30
2022-07-27T08:01:28.403Z,0.50
2022-07-27T08:03:00.318Z,0.43
2022-07-27T08:04:32.109Z,0.52
2022-07-27T08:06:04.213Z,0.57
2022-07-27T08:07:35.849Z,0.47
2022-07-27T08:09:08.522Z,0.38
2022-07-27T08:10:40.296Z,0.70
2022-07-27T08:12:11.955Z,0.30
2022-07-27T08:13:43.651Z,0.40
2022-07-27T08:15:16.260Z,0.55
2022-07-27T08:16:49.107Z,0.40
2022-07-27T08:18:21.073Z,0.55
2022-07-27T08:19:52.726Z,0.30
2022-07-27T08:21:24.401Z,0.30
2022-07-27T08:22:56.082Z,0.30
2022-07-27T08:24:27.788Z,0.40
2022-07-27T08:26:04.153Z,0.25
2022-07-27T08:27:40.877Z,0.50
2022-07-27T08:29:14.252Z,0.30
2022-07-27T08:30:46.632Z,0.40
2022-07-27T08:32:18.320Z,0.20
2022-07-27T08:33:49.985Z,0.40
2022-07-27T08:35:22.848Z,0.35
2022-07-27T08:36:54.498Z,0.30
2022-07-27T08:38:27.528Z,0.30
2022-07-27T08:40:39.112Z,0.40
2022-07-27T08:41:53.673Z,0.47
2022-07-27T08:43:25.781Z,0.25
2022-07-27T08:44:58.297Z,0.40
2022-07-27T08:46:32.950Z,0.32
2022-07-27T08:48:05.331Z,0.40
2022-07-27T08:49:43.655Z,0.45
2022-07-27T08:51:15.862Z,0.25
2022-07-27T08:52:47.824Z,0.30
2022-07-27T08:54:19.678Z,0.35
2022-07-27T08:55:51.527Z,0.30
2022-07-27T08:57:23.171Z,0.40
2022-07-27T08:58:54.805Z,0.50
2022-07-27T09:00:27.980Z,0.30
2022-07-27T09:02:03.345Z,0.40
2022-07-27T09:03:35.666Z,0.45
2022-07-27T09:05:09.146Z,0.20
2022-07-27T09:06:53.094Z,0.30
2022-07-27T09:08:30.498Z,0.30
2022-07-27T09:10:04.448Z,0.30
2022-07-27T09:11:37.245Z,0.40
2022-07-27T09:13:39.817Z,0.40
2022-07-27T09:15:14.361Z,0.38
2022-07-27T09:17:28.894Z,0.40
2022-07-27T09:18:39.373Z,0.40
2022-07-27T09:20:18.680Z,0.30
2022-07-27T09:21:50.756Z,0.20
2022-07-27T09:23:28.430Z,0.40
2022-07-27T09:25:04.026Z,0.57
2022-07-27T09:26:36.342Z,0.40
2022-07-27T09:28:07.953Z,0.35
2022-07-27T09:29:39.613Z,0.50
2022-07-27T09:31:16.164Z,0.60
2022-07-27T09:32:59.877Z,0.38
2022-07-27T09:34:34.477Z,0.32
2022-07-27T09:36:06.543Z,0.30
2022-07-27T09:37:38.162Z,0.38
2022-07-27T09:39:10.664Z,0.55
2022-07-27T09:40:42.339Z,0.43
2022-07-27T09:43:02.793Z,0.50
2022-07-27T09:44:31.149Z,0.30
2022-07-27T09:46:10.684Z,0.40
2022-07-27T09:47:42.395Z,0.40
2022-07-27T09:49:32.804Z,0.52
2022-07-27T09:51:43.335Z,0.50
2022-07-27T09:53:41.239Z,0.50
2022-07-27T09:55:14.532Z,0.55
2022-07-27T09:56:46.423Z,0.68
2022-07-27T09:58:18.033Z,0.60
2022-07-27T10:00:11.068Z,0.60
2022-07-27T10:01:48.785Z,0.52
2022-07-27T10:03:21.692Z,0.52
2022-07-27T10:04:53.445Z,0.47
2022-07-27T10:06:26.841Z,0.50
2022-07-27T10:07:58.513Z,0.60
2022-07-27T10:09:31.179Z,0.85
2022-07-27T10:11:03.774Z,0.57
2022-07-27T10:12:35.827Z,0.60
2022-07-27T10:14:07.490Z,0.90
2022-07-27T10:15:41.597Z,0.77
2022-07-27T10:17:13.753Z,0.90
2022-07-27T10:18:45.305Z,0.60
2022-07-27T10:20:28.506Z,0.82
2022-07-27T10:22:00.150Z,0.80
2022-07-27T10:23:34.811Z,0.80
2022-07-27T10:25:06.990Z,1.00
2022-07-27T10:26:40.987Z,1.30
2022-07-27T10:28:18.494Z,1.20
2022-07-27T10:29:51.309Z,1.13
2022-07-27T10:31:26.227Z,0.80
2022-07-27T10:32:58.160Z,0.80
2022-07-27T10:34:39.069Z,0.75
2022-07-27T10:36:23.803Z,0.98
2022-07-27T10:38:18.099Z,0.63
2022-07-27T10:40:19.683Z,0.55
2022-07-27T10:41:51.413Z,0.50
2022-07-27T10:43:23.118Z,0.50
2022-07-27T10:45:04.536Z,0.45
2022-07-27T10:46:38.241Z,0.30
2022-07-27T10:48:48.472Z,0.40
2022-07-27T10:50:24.890Z,0.30
2022-07-27T10:51:58.643Z,0.22
2022-07-27T10:53:49.156Z,0.30
2022-07-27T10:55:32.641Z,0.30
2022-07-27T10:57:07.258Z,0.30
2022-07-27T10:58:38.845Z,0.28
2022-07-27T11:00:16.342Z,0.20
2022-07-27T11:01:58.603Z,0.30
2022-07-27T11:03:43.800Z,0.30
2022-07-27T11:05:58.141Z,0.40
2022-07-27T11:10:53.342Z,0.30
2022-07-27T11:12:28.686Z,0.50
2022-07-27T11:14:01.192Z,0.40
2022-07-27T11:15:32.854Z,0.40
2022-07-27T11:17:32.234Z,0.30
2022-07-27T11:19:01.426Z,0.40
2022-07-27T11:20:33.202Z,0.43
2022-07-27T11:22:04.963Z,0.63
2022-07-27T11:23:52.096Z,0.60
2022-07-27T11:25:24.566Z,0.22
2022-07-27T11:26:56.352Z,0.30
2022-07-27T11:28:30.415Z,0.30
2022-07-27T11:30:02.057Z,0.30
2022-07-27T11:33:27.330Z,0.35
2022-07-27T11:34:59.106Z,0.40
2022-07-27T11:36:38.084Z,0.40
2022-07-27T11:38:09.728Z,0.30
2022-07-27T11:39:59.876Z,0.43
2022-07-27T11:42:04.975Z,0.20
2022-07-27T11:43:33.967Z,0.40
2022-07-27T11:45:06.570Z,0.30
2022-07-27T11:46:42.782Z,0.28
2022-07-27T11:48:17.591Z,0.40
2022-07-27T11:49:49.281Z,0.30
2022-07-27T11:51:21.920Z,0.30
2022-07-27T11:53:01.554Z,0.30
2022-07-27T11:54:41.659Z,0.20
2022-07-27T11:56:21.994Z,0.40
2022-07-27T11:58:04.430Z,0.20
2022-07-27T11:59:40.804Z,0.22
2022-07-27T12:01:26.579Z,0.30
2022-07-27T12:02:58.222Z,0.20
2022-07-27T12:04:33.592Z,0.30
2022-07-27T12:06:06.212Z,0.20
2022-07-27T12:07:37.961Z,0.30
2022-07-27T12:09:13.354Z,0.30
2022-07-27T12:11:01.114Z,0.30
2022-07-27T12:12:34.797Z,0.20
2022-07-27T12:14:12.875Z,0.40
2022-07-27T12:15:46.641Z,0.50
2022-07-27T12:17:20.173Z,0.25
2022-07-27T12:18:51.830Z,0.28
2022-07-27T12:20:32.531Z,0.60
2022-07-27T12:22:05.145Z,0.30
2022-07-27T12:23:49.615Z,0.30
2022-07-27T12:25:22.254Z,0.20
2022-07-27T12:27:06.918Z,0.50
2022-07-27T12:28:38.684Z,0.25
2022-07-27T12:30:13.182Z,0.60
2022-07-27T12:31:49.448Z,0.35
2022-07-27T12:33:28.463Z,0.40
2022-07-27T12:35:00.578Z,0.38
2022-07-27T12:36:32.601Z,0.30
2022-07-27T12:38:07.422Z,0.40
2022-07-27T12:39:42.368Z,0.43
2022-07-27T12:41:32.547Z,0.30
2022-07-27T12:43:05.901Z,0.30
2022-07-27T12:44:41.496Z,0.43
2022-07-27T12:46:15.590Z,0.40
2022-07-27T12:47:47.766Z,0.75
2022-07-27T12:49:24.000Z,0.38
2022-07-27T12:51:01.855Z,0.30
2022-07-27T12:52:35.753Z,0.40
2022-07-27T12:54:07.529Z,0.40
2022-07-27T12:55:41.038Z,0.30
2022-07-27T12:57:12.909Z,0.30
2022-07-27T12:59:01.232Z,0.30
2022-07-27T13:00:34.181Z,0.47
2022-07-27T13:02:06.046Z,0.43
2022-07-27T13:03:37.721Z,0.30
2022-07-27T13:05:11.434Z,0.40
2022-07-27T13:06:43.070Z,0.35
2022-07-27T13:08:16.756Z,0.50
2022-07-27T13:10:04.275Z,0.30
2022-07-27T13:11:36.286Z,0.30
2022-07-27T13:13:08.616Z,0.40
2022-07-27T13:14:40.257Z,0.60
2022-07-27T13:16:15.076Z,0.30
2022-07-27T13:17:48.296Z,0.40
2022-07-27T13:19:19.940Z,0.30
2022-07-27T13:20:52.155Z,0.30
2022-07-27T13:22:23.932Z,0.60
2022-07-27T13:23:55.575Z,0.43
2022-07-27T13:25:27.241Z,0.32
2022-07-27T13:26:58.997Z,0.35
2022-07-27T13:28:30.637Z,0.40
2022-07-27T13:30:03.733Z,0.20
2022-07-27T13:31:35.649Z,0.40
2022-07-27T13:33:07.550Z,0.32
2022-07-27T13:34:39.165Z,0.40
2022-07-27T13:36:10.873Z,0.30
2022-07-27T13:37:43.558Z,0.30
2022-07-27T13:39:15.850Z,0.40
2022-07-27T13:40:48.093Z,0.30
2022-07-27T13:42:21.195Z,0.47
2022-07-27T13:43:52.973Z,0.50
2022-07-27T13:45:24.666Z,0.25
2022-07-27T13:46:56.580Z,0.35
2022-07-27T13:48:28.552Z,0.30
2022-07-27T13:50:00.286Z,0.30
2022-07-27T13:51:32.032Z,0.30
2022-07-27T13:53:03.662Z,0.30
2022-07-27T13:54:35.437Z,0.30
2022-07-27T13:56:07.475Z,0.20
2022-07-27T13:57:39.142Z,0.30
2022-07-27T13:59:11.682Z,0.20
2022-07-27T14:00:44.119Z,0.22
2022-07-27T14:02:16.016Z,0.32
2022-07-27T14:03:52.856Z,0.30
2022-07-27T14:05:26.420Z,0.40
2022-07-27T14:07:00.179Z,0.38
2022-07-27T14:08:32.197Z,0.65
2022-07-27T14:10:22.740Z,0.30
2022-07-27T14:11:54.485Z,0.30
2022-07-27T14:13:26.548Z,0.15
2022-07-27T14:14:58.174Z,0.30
2022-07-27T14:16:30.090Z,0.55
2022-07-27T14:18:01.815Z,0.35
2022-07-27T14:19:33.578Z,0.40
2022-07-27T14:21:07.512Z,0.20
2022-07-27T14:22:39.141Z,0.30
2022-07-27T14:24:10.772Z,0.30
2022-07-27T14:25:42.448Z,0.30
2022-07-27T14:27:14.082Z,0.30
2022-07-27T14:28:45.727Z,0.40
2022-07-27T14:30:20.803Z,0.13
2022-07-27T14:31:52.809Z,0.25
2022-07-27T14:33:26.040Z,0.30
2022-07-27T14:35:06.259Z,0.30
2022-07-27T14:36:37.872Z,0.30
2022-07-27T14:38:09.630Z,0.50
2022-07-27T14:39:41.830Z,0.20
2022-07-27T14:41:13.634Z,0.30
2022-07-27T14:42:45.270Z,0.40
2022-07-27T14:44:18.954Z,0.40
2022-07-27T14:45:50.813Z,0.47
2022-07-27T14:47:23.089Z,0.32
2022-07-27T14:49:10.125Z,0.50
2022-07-27T14:50:42.004Z,0.38
2022-07-27T14:52:13.773Z,0.30
2022-07-27T14:53:46.072Z,0.30
2022-07-27T14:55:17.868Z,0.25
2022-07-27T14:56:49.552Z,0.40
2022-07-27T14:58:21.261Z,0.40
2022-07-27T14:59:52.921Z,0.32
2022-07-27T15:01:25.005Z,0.38
2022-07-27T15:02:56.742Z,0.40
2022-07-27T15:04:28.969Z,0.40
2022-07-27T15:06:00.629Z,0.50
2022-07-27T15:07:33.134Z,0.30
2022-07-27T15:09:04.790Z,0.20
2022-07-27T15:10:36.457Z,0.30
2022-07-27T15:12:08.261Z,0.30
2022-07-27T15:13:39.964Z,0.20
2022-07-27T15:15:11.602Z,0.30
2022-07-27T15:16:43.741Z,0.43
2022-07-27T15:18:16.127Z,0.40
2022-07-27T15:19:47.906Z,0.30
2022-07-27T15:21:19.541Z,0.20
2022-07-27T15:22:51.297Z,0.20
2022-07-27T15:24:22.953Z,0.40
2022-07-27T15:25:54.571Z,0.38
2022-07-27T15:27:26.236Z,0.30
2022-07-27T15:28:57.944Z,0.22
2022-07-27T15:30:31.095Z,0.30
2022-07-27T15:32:04.618Z,0.50
2022-07-27T15:33:36.262Z,0.28
2022-07-27T15:35:08.310Z,0.70
2022-07-27T15:36:45.903Z,0.30
2022-07-27T15:38:21.946Z,0.30
2022-07-27T15:39:53.653Z,0.28
2022-07-27T15:41:25.473Z,0.30
2022-07-27T15:42:57.080Z,0.40
2022-07-27T15:44:28.699Z,0.30
2022-07-27T15:46:00.651Z,0.30
2022-07-27T15:47:32.268Z,0.50
2022-07-27T15:49:04.113Z,0.40
2022-07-27T15:50:37.824Z,0.38
2022-07-27T15:52:09.436Z,0.30
2022-07-27T15:53:41.084Z,0.52
2022-07-27T15:55:16.520Z,0.22
2022-07-27T15:56:48.245Z,0.43
2022-07-27T15:58:22.240Z,0.40
2022-07-27T15:59:53.964Z,0.30
2022-07-27T16:01:34.263Z,0.30
2022-07-27T16:03:07.626Z,0.20
2022-07-27T16:04:39.257Z,0.30
2022-07-27T16:06:10.956Z,0.40
2022-07-27T16:07:42.712Z,0.25
2022-07-27T16:09:14.795Z,0.35
2022-07-27T16:10:48.828Z,0.30
2022-07-27T16:12:20.554Z,0.20
2022-07-27T16:13:52.780Z,0.35
2022-07-27T16:15:44.448Z,0.30
2022-07-27T16:17:16.160Z,0.30
2022-07-27T16:18:48.614Z,0.40
2022-07-27T16:20:20.392Z,0.38
2022-07-27T16:21:54.430Z,0.20
2022-07-27T16:23:27.660Z,0.30
2022-07-27T16:24:59.850Z,0.30
2022-07-27T16:26:32.427Z,0.30
2022-07-27T16:28:04.232Z,0.40
2022-07-27T16:29:36.139Z,0.20
2022-07-27T16:31:10.531Z,0.20
2022-07-27T16:32:42.341Z,0.40
2022-07-27T16:34:14.073Z,0.22
2022-07-27T16:35:46.714Z,0.30
2022-07-27T16:37:18.365Z,0.20
2022-07-27T16:38:51.854Z,0.30
2022-07-27T16:40:23.492Z,0.35
2022-07-27T16:41:55.332Z,0.20
2022-07-27T16:43:36.012Z,0.50
2022-07-27T16:45:10.959Z,0.40
2022-07-27T16:46:43.249Z,0.40
2022-07-27T16:48:14.946Z,0.40
2022-07-27T16:49:46.686Z,0.30
2022-07-27T16:51:18.353Z,0.30
2022-07-27T16:52:50.007Z,0.35
2022-07-27T16:54:21.731Z,0.38
2022-07-27T16:55:57.264Z,0.30
2022-07-27T16:57:29.076Z,0.20
2022-07-27T16:59:00.742Z,0.30
2022-07-27T17:00:38.199Z,0.30
2022-07-27T17:02:11.136Z,0.30
2022-07-27T17:03:47.883Z,0.35
2022-07-27T17:05:20.867Z,0.28
2022-07-27T17:06:52.484Z,0.40
2022-07-27T17:08:27.785Z,0.40
2022-07-27T17:10:00.126Z,0.32
2022-07-27T17:11:31.802Z,0.45
2022-07-27T17:13:13.533Z,0.35
2022-07-27T17:14:45.936Z,0.40
2022-07-27T17:16:18.650Z,0.30
2022-07-27T17:17:50.333Z,0.32
2022-07-27T17:19:21.936Z,0.35
2022-07-27T17:20:53.601Z,0.32
2022-07-27T17:22:25.256Z,0.55
2022-07-27T17:23:56.910Z,0.28
2022-07-27T17:25:28.615Z,0.38
2022-07-27T17:27:00.254Z,0.40
2022-07-27T17:28:33.337Z,0.38
2022-07-27T17:30:05.556Z,0.28
2022-07-27T17:31:37.313Z,0.30
2022-07-27T17:33:09.085Z,0.20
2022-07-27T17:34:41.484Z,0.32
2022-07-27T17:36:15.383Z,0.28
2022-07-27T17:38:05.709Z,0.30
2022-07-27T17:39:39.325Z,0.40
2022-07-27T17:41:12.300Z,0.30
2022-07-27T17:42:43.967Z,0.25
2022-07-27T17:44:15.856Z,0.20
2022-07-27T17:45:47.537Z,0.30
2022-07-27T17:47:19.386Z,0.10
2022-07-27T17:48:52.855Z,0.30
2022-07-27T17:50:24.532Z,0.30
2022-07-27T17:51:56.811Z,0.28
2022-07-27T17:53:29.171Z,0.20
2022-07-27T17:55:01.150Z,0.30
2022-07-27T17:56:32.798Z,0.22
2022-07-27T17:58:04.439Z,0.43
2022-07-27T17:59:38.063Z,0.20
2022-07-27T18:01:10.019Z,0.20
2022-07-27T18:02:41.659Z,0.22
2022-07-27T18:04:13.395Z,0.25
2022-07-27T18:05:45.278Z,0.25
2022-07-27T18:07:16.903Z,0.25
2022-07-27T18:08:48.552Z,0.30
2022-07-27T18:10:21.659Z,0.20
2022-07-27T18:11:53.324Z,0.30
2022-07-27T18:13:38.868Z,0.30
2022-07-27T18:15:50.554Z,0.30
2022-07-27T18:17:22.343Z,0.20
2022-07-27T18:18:54.008Z,0.30
2022-07-27T18:20:25.904Z,0.20
2022-07-27T18:21:57.552Z,0.35
2022-07-27T18:23:30.737Z,0.20
2022-07-27T18:25:06.749Z,0.30
2022-07-27T18:26:38.673Z,0.20
2022-07-27T18:28:10.772Z,0.20
2022-07-27T18:29:42.415Z,0.30
2022-07-27T18:31:15.923Z,0.88
2022-07-27T18:32:47.586Z,0.32
2022-07-27T18:34:19.487Z,0.40
2022-07-27T18:35:51.146Z,0.40
2022-07-27T18:37:25.621Z,0.30
2022-07-27T18:38:57.782Z,0.30
2022-07-27T18:40:29.431Z,0.30
2022-07-27T18:42:03.626Z,0.30
2022-07-27T18:43:35.300Z,0.35
2022-07-27T18:45:09.291Z,0.47
2022-07-27T18:46:41.420Z,0.25
2022-07-27T18:48:13.562Z,0.40
2022-07-27T18:49:45.521Z,0.40
2022-07-27T18:51:17.337Z,0.30
2022-07-27T18:52:49.053Z,0.28
2022-07-27T18:54:21.759Z,0.30
2022-07-27T18:55:56.496Z,0.30
2022-07-27T18:57:28.613Z,0.40
2022-07-27T18:59:00.217Z,0.30
2022-07-27T19:00:32.099Z,0.30
2022-07-27T19:02:03.854Z,0.28
2022-07-27T19:03:36.450Z,0.25
2022-07-27T19:05:10.395Z,0.50
2022-07-27T19:06:45.413Z,0.20
2022-07-27T19:08:17.874Z,0.20
2022-07-27T19:09:49.605Z,0.30
2022-07-27T19:11:21.668Z,0.13
2022-07-27T19:12:54.342Z,0.30
2022-07-27T19:14:26.022Z,0.47
2022-07-27T19:15:57.664Z,0.30
2022-07-27T19:17:29.303Z,0.20
2022-07-27T19:19:01.620Z,0.20
2022-07-27T19:20:33.505Z,0.40
2022-07-27T19:22:05.192Z,0.43
2022-07-27T19:23:36.829Z,0.30
2022-07-27T19:25:08.805Z,0.30
2022-07-27T19:26:41.646Z,0.60
2022-07-27T19:28:18.887Z,0.40
2022-07-27T19:29:50.524Z,0.43
2022-07-27T19:31:23.803Z,0.40
2022-07-27T19:32:56.478Z,0.60
2022-07-27T19:34:28.137Z,0.40
2022-07-27T19:35:59.954Z,0.70
2022-07-27T19:37:31.577Z,0.65
2022-07-27T19:39:07.757Z,0.47
2022-07-27T19:40:44.953Z,0.60
2022-07-27T19:42:17.156Z,0.57
2022-07-27T19:43:49.095Z,0.60
2022-07-27T19:45:20.729Z,0.60
2022-07-27T19:46:53.287Z,1.35
2022-07-27T19:48:25.180Z,0.80
2022-07-27T19:49:56.849Z,0.85
2022-07-27T19:51:28.484Z,0.90
2022-07-27T19:53:01.200Z,1.05
2022-07-27T19:54:32.804Z,1.10
2022-07-27T19:56:05.204Z,1.70
2022-07-27T19:57:36.943Z,1.52
2022-07-27T19:59:08.740Z,1.33
2022-07-27T20:00:40.403Z,1.52
2022-07-27T20:02:12.114Z,1.33
2022-07-27T20:03:54.658Z,1.52
2022-07-27T20:05:26.919Z,1.58
2022-07-27T20:06:58.549Z,1.60
2022-07-27T20:08:30.242Z,1.50
2022-07-27T20:10:01.916Z,1.52
2022-07-27T20:11:33.927Z,1.40
2022-07-27T20:13:05.921Z,1.60
2022-07-27T20:14:37.801Z,1.90
2022-07-27T20:16:09.512Z,1.80
2022-07-27T20:17:41.150Z,1.55
2022-07-27T20:19:13.603Z,1.70
2022-07-27T20:20:45.681Z,1.60
2022-07-27T20:22:17.403Z,1.50
2022-07-27T20:23:49.239Z,1.60
2022-07-27T20:25:22.053Z,1.73
2022-07-27T20:26:54.502Z,1.80
2022-07-27T20:28:26.119Z,1.38
2022-07-27T20:29:57.737Z,1.67
2022-07-27T20:31:29.386Z,1.60
2022-07-27T20:33:01.029Z,1.95
2022-07-27T20:34:32.629Z,1.60
2022-07-27T20:36:05.016Z,1.60
2022-07-27T20:37:36.769Z,1.73
2022-07-27T20:39:13.952Z,1.55
2022-07-27T20:40:48.596Z,1.75
2022-07-27T20:42:20.306Z,1.60
2022-07-27T20:43:52.139Z,2.00
2022-07-27T20:45:24.458Z,1.95
2022-07-27T20:46:56.078Z,1.98
2022-07-27T20:48:27.745Z,1.83
2022-07-27T20:49:59.359Z,1.85
2022-07-27T20:51:30.996Z,1.50
2022-07-27T20:53:04.170Z,1.77
2022-07-27T20:54:35.984Z,1.58
2022-07-27T20:56:07.705Z,1.50
2022-07-27T20:57:39.468Z,1.73
2022-07-27T20:59:16.791Z,1.35
2022-07-27T21:00:48.878Z,1.13
2022-07-27T21:02:20.616Z,1.77